sensor_id;sensor_type;location;lat;lon;timestamp;temperature;humidity
23289;DHT22;11813;50.834;4.280;2023-07-22T00:00:29;17.20;99.90
23289;DHT22;11813;50.834;4.280;2023-07-22T00:02:55;17.20;99.90
23289;DHT22;11813;50.834;4.280;2023-07-22T00:05:21;17.20;99.90
23289;DHT22;11813;50.834;4.280;2023-07-22T00:07:49;17.20;99.90
23289;DHT22;11813;50.834;4.280;2023-07-22T00:10:15;17.10;99.90
23289;DHT22;11813;50.834;4.280;2023-07-22T00:12:41;17.10;99.90
23289;DHT22;11813;50.834;4.280;2023-07-22T00:15:07;17.10;99.90
23289;DHT22;11813;50.834;4.280;2023-07-22T00:17:33;17.00;99.90
23289;DHT22;11813;50.834;4.280;2023-07-22T00:19:59;17.10;99.90
23289;DHT22;11813;50.834;4.280;2023-07-22T00:22:25;17.00;99.90
23289;DHT22;11813;50.834;4.280;2023-07-22T00:24:52;17.00;99.90
23289;DHT22;11813;50.834;4.280;2023-07-22T00:27:18;17.00;99.90
23289;DHT22;11813;50.834;4.280;2023-07-22T00:29:43;16.90;99.90
23289;DHT22;11813;50.834;4.280;2023-07-22T00:32:09;16.90;99.90
23289;DHT22;11813;50.834;4.280;2023-07-22T00:34:35;16.90;99.90
23289;DHT22;11813;50.834;4.280;2023-07-22T00:37:02;16.80;99.90
23289;DHT22;11813;50.834;4.280;2023-07-22T00:39:28;16.80;99.90
23289;DHT22;11813;50.834;4.280;2023-07-22T00:41:53;16.80;99.90
23289;DHT22;11813;50.834;4.280;2023-07-22T00:44:19;16.80;99.90
23289;DHT22;11813;50.834;4.280;2023-07-22T00:46:44;16.80;99.90
23289;DHT22;11813;50.834;4.280;2023-07-22T00:49:11;16.80;99.90
23289;DHT22;11813;50.834;4.280;2023-07-22T00:51:38;16.80;99.90
23289;DHT22;11813;50.834;4.280;2023-07-22T00:54:03;16.80;99.90
23289;DHT22;11813;50.834;4.280;2023-07-22T00:56:32;16.80;99.90
23289;DHT22;11813;50.834;4.280;2023-07-22T00:58:58;16.80;99.90
23289;DHT22;11813;50.834;4.280;2023-07-22T01:01:24;16.90;99.90
23289;DHT22;11813;50.834;4.280;2023-07-22T01:03:50;16.80;99.90
23289;DHT22;11813;50.834;4.280;2023-07-22T01:06:15;16.90;99.90
23289;DHT22;11813;50.834;4.280;2023-07-22T01:08:43;16.80;99.90
23289;DHT22;11813;50.834;4.280;2023-07-22T01:11:09;16.80;99.90
23289;DHT22;11813;50.834;4.280;2023-07-22T01:13:34;16.70;99.90
23289;DHT22;11813;50.834;4.280;2023-07-22T01:16:00;16.60;99.90
23289;DHT22;11813;50.834;4.280;2023-07-22T01:18:26;16.50;99.90
23289;DHT22;11813;50.834;4.280;2023-07-22T01:20:51;16.60;99.90
23289;DHT22;11813;50.834;4.280;2023-07-22T01:23:17;16.60;99.90
23289;DHT22;11813;50.834;4.280;2023-07-22T01:25:43;16.50;99.90
23289;DHT22;11813;50.834;4.280;2023-07-22T01:28:10;16.60;99.90
23289;DHT22;11813;50.834;4.280;2023-07-22T01:30:36;16.60;99.90
23289;DHT22;11813;50.834;4.280;2023-07-22T01:33:02;16.60;99.90
23289;DHT22;11813;50.834;4.280;2023-07-22T01:35:27;16.60;99.90
23289;DHT22;11813;50.834;4.280;2023-07-22T01:37:53;16.50;99.90
23289;DHT22;11813;50.834;4.280;2023-07-22T01:40:19;16.30;99.90
23289;DHT22;11813;50.834;4.280;2023-07-22T01:42:45;16.40;99.90
23289;DHT22;11813;50.834;4.280;2023-07-22T01:45:11;16.30;99.90
23289;DHT22;11813;50.834;4.280;2023-07-22T01:47:38;16.30;99.90
23289;DHT22;11813;50.834;4.280;2023-07-22T01:50:04;16.40;99.90
23289;DHT22;11813;50.834;4.280;2023-07-22T01:52:33;16.40;99.90
23289;DHT22;11813;50.834;4.280;2023-07-22T01:54:59;16.40;99.90
23289;DHT22;11813;50.834;4.280;2023-07-22T01:57:24;16.40;99.90
23289;DHT22;11813;50.834;4.280;2023-07-22T01:59:50;16.40;99.90
23289;DHT22;11813;50.834;4.280;2023-07-22T02:02:16;16.40;99.90
23289;DHT22;11813;50.834;4.280;2023-07-22T02:04:41;16.40;99.90
23289;DHT22;11813;50.834;4.280;2023-07-22T02:07:07;16.30;99.90
23289;DHT22;11813;50.834;4.280;2023-07-22T02:09:32;16.30;99.90
23289;DHT22;11813;50.834;4.280;2023-07-22T02:11:58;16.20;99.90
23289;DHT22;11813;50.834;4.280;2023-07-22T02:14:24;16.20;99.90
23289;DHT22;11813;50.834;4.280;2023-07-22T02:16:50;16.10;99.90
23289;DHT22;11813;50.834;4.280;2023-07-22T02:19:15;16.00;99.90
23289;DHT22;11813;50.834;4.280;2023-07-22T02:21:41;16.00;99.90
23289;DHT22;11813;50.834;4.280;2023-07-22T02:24:07;15.80;99.90
23289;DHT22;11813;50.834;4.280;2023-07-22T02:26:33;15.80;99.90
23289;DHT22;11813;50.834;4.280;2023-07-22T02:28:59;15.90;99.90
23289;DHT22;11813;50.834;4.280;2023-07-22T02:31:24;15.90;99.90
23289;DHT22;11813;50.834;4.280;2023-07-22T02:33:50;15.90;99.90
23289;DHT22;11813;50.834;4.280;2023-07-22T02:36:16;15.80;99.90
23289;DHT22;11813;50.834;4.280;2023-07-22T02:38:42;15.80;99.90
23289;DHT22;11813;50.834;4.280;2023-07-22T02:41:07;15.80;99.90
23289;DHT22;11813;50.834;4.280;2023-07-22T02:43:34;15.80;99.90
23289;DHT22;11813;50.834;4.280;2023-07-22T02:46:05;15.70;99.90
23289;DHT22;11813;50.834;4.280;2023-07-22T02:48:33;15.70;99.90
23289;DHT22;11813;50.834;4.280;2023-07-22T02:51:09;15.80;99.90
23289;DHT22;11813;50.834;4.280;2023-07-22T02:53:36;15.70;99.90
23289;DHT22;11813;50.834;4.280;2023-07-22T02:56:03;15.70;99.90
23289;DHT22;11813;50.834;4.280;2023-07-22T02:58:29;15.70;99.90
23289;DHT22;11813;50.834;4.280;2023-07-22T03:00:54;15.70;99.90
23289;DHT22;11813;50.834;4.280;2023-07-22T03:03:20;15.70;99.90
23289;DHT22;11813;50.834;4.280;2023-07-22T03:05:46;15.60;99.90
23289;DHT22;11813;50.834;4.280;2023-07-22T03:08:12;15.60;99.90
23289;DHT22;11813;50.834;4.280;2023-07-22T03:10:38;15.60;99.90
23289;DHT22;11813;50.834;4.280;2023-07-22T03:13:04;15.50;99.90
23289;DHT22;11813;50.834;4.280;2023-07-22T03:15:29;15.50;99.90
23289;DHT22;11813;50.834;4.280;2023-07-22T03:17:56;15.50;99.90
23289;DHT22;11813;50.834;4.280;2023-07-22T03:20:22;15.60;99.90
23289;DHT22;11813;50.834;4.280;2023-07-22T03:22:48;15.60;99.90
23289;DHT22;11813;50.834;4.280;2023-07-22T03:25:15;15.50;99.90
23289;DHT22;11813;50.834;4.280;2023-07-22T03:27:43;15.50;99.90
23289;DHT22;11813;50.834;4.280;2023-07-22T03:30:11;15.40;99.90
23289;DHT22;11813;50.834;4.280;2023-07-22T03:32:44;15.50;99.90
23289;DHT22;11813;50.834;4.280;2023-07-22T03:35:10;15.50;99.90
23289;DHT22;11813;50.834;4.280;2023-07-22T03:37:36;15.50;99.90
23289;DHT22;11813;50.834;4.280;2023-07-22T03:40:03;15.50;99.90
23289;DHT22;11813;50.834;4.280;2023-07-22T03:42:32;15.40;99.90
23289;DHT22;11813;50.834;4.280;2023-07-22T03:44:58;15.30;99.90
23289;DHT22;11813;50.834;4.280;2023-07-22T03:47:23;15.30;99.90
23289;DHT22;11813;50.834;4.280;2023-07-22T03:49:49;15.20;99.90
23289;DHT22;11813;50.834;4.280;2023-07-22T03:52:14;15.30;99.90
23289;DHT22;11813;50.834;4.280;2023-07-22T03:54:44;15.30;99.90
23289;DHT22;11813;50.834;4.280;2023-07-22T03:57:09;15.20;99.90
23289;DHT22;11813;50.834;4.280;2023-07-22T03:59:35;15.20;99.90
23289;DHT22;11813;50.834;4.280;2023-07-22T04:02:01;15.30;99.90
23289;DHT22;11813;50.834;4.280;2023-07-22T04:04:26;15.30;99.90
23289;DHT22;11813;50.834;4.280;2023-07-22T04:06:52;15.30;99.90
23289;DHT22;11813;50.834;4.280;2023-07-22T04:09:17;15.30;99.90
23289;DHT22;11813;50.834;4.280;2023-07-22T04:11:43;15.40;99.90
23289;DHT22;11813;50.834;4.280;2023-07-22T04:14:08;15.50;99.90
23289;DHT22;11813;50.834;4.280;2023-07-22T04:16:34;15.50;99.90
23289;DHT22;11813;50.834;4.280;2023-07-22T04:18:59;15.60;99.90
23289;DHT22;11813;50.834;4.280;2023-07-22T04:21:25;15.60;99.90
23289;DHT22;11813;50.834;4.280;2023-07-22T04:23:51;15.60;99.90
23289;DHT22;11813;50.834;4.280;2023-07-22T04:26:16;15.70;99.90
23289;DHT22;11813;50.834;4.280;2023-07-22T04:28:42;15.70;99.90
23289;DHT22;11813;50.834;4.280;2023-07-22T04:31:08;15.70;99.90
23289;DHT22;11813;50.834;4.280;2023-07-22T04:33:34;15.70;99.90
23289;DHT22;11813;50.834;4.280;2023-07-22T04:36:00;15.60;99.90
23289;DHT22;11813;50.834;4.280;2023-07-22T04:38:26;15.60;99.90
23289;DHT22;11813;50.834;4.280;2023-07-22T04:40:52;15.50;99.90
23289;DHT22;11813;50.834;4.280;2023-07-22T04:43:17;15.50;99.90
23289;DHT22;11813;50.834;4.280;2023-07-22T04:45:46;15.50;99.90
23289;DHT22;11813;50.834;4.280;2023-07-22T04:48:16;15.50;99.90
23289;DHT22;11813;50.834;4.280;2023-07-22T04:50:42;15.50;99.90
23289;DHT22;11813;50.834;4.280;2023-07-22T04:53:11;15.50;99.90
23289;DHT22;11813;50.834;4.280;2023-07-22T04:55:39;15.30;99.90
23289;DHT22;11813;50.834;4.280;2023-07-22T04:58:04;15.20;99.90
23289;DHT22;11813;50.834;4.280;2023-07-22T05:00:30;15.00;99.90
23289;DHT22;11813;50.834;4.280;2023-07-22T05:02:56;15.10;99.90
23289;DHT22;11813;50.834;4.280;2023-07-22T05:05:21;15.10;99.90
23289;DHT22;11813;50.834;4.280;2023-07-22T05:07:47;15.20;99.90
23289;DHT22;11813;50.834;4.280;2023-07-22T05:10:15;15.10;99.90
23289;DHT22;11813;50.834;4.280;2023-07-22T05:12:41;15.10;99.90
23289;DHT22;11813;50.834;4.280;2023-07-22T05:15:09;15.20;99.90
23289;DHT22;11813;50.834;4.280;2023-07-22T05:17:34;15.00;99.90
23289;DHT22;11813;50.834;4.280;2023-07-22T05:20:00;15.00;99.90
23289;DHT22;11813;50.834;4.280;2023-07-22T05:22:25;15.10;99.90
23289;DHT22;11813;50.834;4.280;2023-07-22T05:24:51;15.00;99.90
23289;DHT22;11813;50.834;4.280;2023-07-22T05:27:17;15.00;99.90
23289;DHT22;11813;50.834;4.280;2023-07-22T05:29:42;15.10;99.90
23289;DHT22;11813;50.834;4.280;2023-07-22T05:32:08;15.10;99.90
23289;DHT22;11813;50.834;4.280;2023-07-22T05:34:34;15.10;99.90
23289;DHT22;11813;50.834;4.280;2023-07-22T05:36:59;15.30;99.90
23289;DHT22;11813;50.834;4.280;2023-07-22T05:39:25;15.30;99.90
23289;DHT22;11813;50.834;4.280;2023-07-22T05:41:51;15.40;99.90
23289;DHT22;11813;50.834;4.280;2023-07-22T05:44:17;15.50;99.90
23289;DHT22;11813;50.834;4.280;2023-07-22T05:46:42;15.50;99.90
23289;DHT22;11813;50.834;4.280;2023-07-22T05:49:09;15.50;99.90
23289;DHT22;11813;50.834;4.280;2023-07-22T05:51:36;15.60;99.90
23289;DHT22;11813;50.834;4.280;2023-07-22T05:54:01;15.60;99.90
23289;DHT22;11813;50.834;4.280;2023-07-22T05:56:27;15.60;99.90
23289;DHT22;11813;50.834;4.280;2023-07-22T05:58:52;15.70;99.90
23289;DHT22;11813;50.834;4.280;2023-07-22T06:01:18;15.70;99.90
23289;DHT22;11813;50.834;4.280;2023-07-22T06:03:43;15.90;99.90
23289;DHT22;11813;50.834;4.280;2023-07-22T06:06:10;16.00;99.90
23289;DHT22;11813;50.834;4.280;2023-07-22T06:08:35;16.10;99.90
23289;DHT22;11813;50.834;4.280;2023-07-22T06:11:01;16.20;99.90
23289;DHT22;11813;50.834;4.280;2023-07-22T06:13:27;16.10;99.90
23289;DHT22;11813;50.834;4.280;2023-07-22T06:15:52;16.20;99.90
23289;DHT22;11813;50.834;4.280;2023-07-22T06:18:18;16.20;99.90
23289;DHT22;11813;50.834;4.280;2023-07-22T06:20:44;16.20;99.90
23289;DHT22;11813;50.834;4.280;2023-07-22T06:23:10;16.10;99.90
23289;DHT22;11813;50.834;4.280;2023-07-22T06:25:35;16.20;99.90
23289;DHT22;11813;50.834;4.280;2023-07-22T06:28:01;16.30;99.90
23289;DHT22;11813;50.834;4.280;2023-07-22T06:30:27;16.40;99.90
23289;DHT22;11813;50.834;4.280;2023-07-22T06:32:53;16.60;99.90
23289;DHT22;11813;50.834;4.280;2023-07-22T06:35:18;16.60;99.90
23289;DHT22;11813;50.834;4.280;2023-07-22T06:37:44;16.70;99.90
23289;DHT22;11813;50.834;4.280;2023-07-22T06:40:10;16.80;99.90
23289;DHT22;11813;50.834;4.280;2023-07-22T06:42:36;16.90;99.90
23289;DHT22;11813;50.834;4.280;2023-07-22T06:45:02;17.00;99.90
23289;DHT22;11813;50.834;4.280;2023-07-22T06:47:28;16.90;99.90
23289;DHT22;11813;50.834;4.280;2023-07-22T06:49:53;17.00;99.90
23289;DHT22;11813;50.834;4.280;2023-07-22T06:52:19;17.10;99.90
23289;DHT22;11813;50.834;4.280;2023-07-22T06:54:45;17.10;99.90
23289;DHT22;11813;50.834;4.280;2023-07-22T06:57:11;17.00;99.90
23289;DHT22;11813;50.834;4.280;2023-07-22T06:59:36;16.90;99.90
23289;DHT22;11813;50.834;4.280;2023-07-22T07:02:03;17.00;99.90
23289;DHT22;11813;50.834;4.280;2023-07-22T07:04:30;17.00;99.90
23289;DHT22;11813;50.834;4.280;2023-07-22T07:06:55;16.90;99.90
23289;DHT22;11813;50.834;4.280;2023-07-22T07:09:21;16.90;99.90
23289;DHT22;11813;50.834;4.280;2023-07-22T07:11:47;16.90;99.90
23289;DHT22;11813;50.834;4.280;2023-07-22T07:14:12;17.00;99.90
23289;DHT22;11813;50.834;4.280;2023-07-22T07:16:38;17.20;99.90
23289;DHT22;11813;50.834;4.280;2023-07-22T07:19:03;17.20;99.90
23289;DHT22;11813;50.834;4.280;2023-07-22T07:21:29;17.30;99.90
23289;DHT22;11813;50.834;4.280;2023-07-22T07:23:55;17.20;99.90
23289;DHT22;11813;50.834;4.280;2023-07-22T07:26:21;17.30;99.90
23289;DHT22;11813;50.834;4.280;2023-07-22T07:28:48;17.30;99.90
23289;DHT22;11813;50.834;4.280;2023-07-22T07:31:16;17.50;99.90
23289;DHT22;11813;50.834;4.280;2023-07-22T07:33:42;17.50;99.90
23289;DHT22;11813;50.834;4.280;2023-07-22T07:36:07;17.70;99.90
23289;DHT22;11813;50.834;4.280;2023-07-22T07:38:33;17.80;99.90
23289;DHT22;11813;50.834;4.280;2023-07-22T07:41:01;17.90;99.90
23289;DHT22;11813;50.834;4.280;2023-07-22T07:43:26;18.00;99.90
23289;DHT22;11813;50.834;4.280;2023-07-22T07:48:51;18.00;99.90
23289;DHT22;11813;50.834;4.280;2023-07-22T07:51:18;18.10;99.90
23289;DHT22;11813;50.834;4.280;2023-07-22T07:53:45;18.10;99.90
23289;DHT22;11813;50.834;4.280;2023-07-22T07:56:13;18.20;99.90
23289;DHT22;11813;50.834;4.280;2023-07-22T07:58:39;18.00;99.90
23289;DHT22;11813;50.834;4.280;2023-07-22T08:01:05;18.10;99.90
23289;DHT22;11813;50.834;4.280;2023-07-22T08:03:32;18.00;99.90
23289;DHT22;11813;50.834;4.280;2023-07-22T08:05:58;18.20;99.90
23289;DHT22;11813;50.834;4.280;2023-07-22T08:08:23;18.30;99.90
23289;DHT22;11813;50.834;4.280;2023-07-22T08:11:12;18.40;99.90
23289;DHT22;11813;50.834;4.280;2023-07-22T08:13:39;18.60;99.90
23289;DHT22;11813;50.834;4.280;2023-07-22T08:16:06;18.70;99.90
23289;DHT22;11813;50.834;4.280;2023-07-22T08:18:32;18.80;99.90
23289;DHT22;11813;50.834;4.280;2023-07-22T08:20:58;18.90;99.90
23289;DHT22;11813;50.834;4.280;2023-07-22T08:23:24;19.10;99.90
23289;DHT22;11813;50.834;4.280;2023-07-22T08:25:50;19.10;99.90
23289;DHT22;11813;50.834;4.280;2023-07-22T08:28:16;19.20;99.90
23289;DHT22;11813;50.834;4.280;2023-07-22T08:30:42;19.40;99.90
23289;DHT22;11813;50.834;4.280;2023-07-22T08:33:09;19.20;99.90
23289;DHT22;11813;50.834;4.280;2023-07-22T08:35:36;19.20;99.90
23289;DHT22;11813;50.834;4.280;2023-07-22T08:38:05;19.10;99.90
23289;DHT22;11813;50.834;4.280;2023-07-22T08:40:35;19.30;99.90
23289;DHT22;11813;50.834;4.280;2023-07-22T08:43:02;19.50;99.90
23289;DHT22;11813;50.834;4.280;2023-07-22T08:45:31;19.60;99.90
23289;DHT22;11813;50.834;4.280;2023-07-22T08:48:03;19.80;99.90
23289;DHT22;11813;50.834;4.280;2023-07-22T08:50:59;19.70;99.90
23289;DHT22;11813;50.834;4.280;2023-07-22T08:53:27;19.70;99.90
23289;DHT22;11813;50.834;4.280;2023-07-22T08:55:54;19.70;99.90
23289;DHT22;11813;50.834;4.280;2023-07-22T08:58:21;19.80;99.90
23289;DHT22;11813;50.834;4.280;2023-07-22T09:00:47;19.80;99.90
23289;DHT22;11813;50.834;4.280;2023-07-22T09:03:13;19.90;99.90
23289;DHT22;11813;50.834;4.280;2023-07-22T09:05:40;20.10;99.90
23289;DHT22;11813;50.834;4.280;2023-07-22T09:08:07;20.10;99.90
23289;DHT22;11813;50.834;4.280;2023-07-22T09:10:34;20.10;99.90
23289;DHT22;11813;50.834;4.280;2023-07-22T09:13:02;20.10;99.90
23289;DHT22;11813;50.834;4.280;2023-07-22T09:15:28;20.10;99.90
23289;DHT22;11813;50.834;4.280;2023-07-22T09:17:54;20.20;99.90
23289;DHT22;11813;50.834;4.280;2023-07-22T09:20:20;20.30;99.90
23289;DHT22;11813;50.834;4.280;2023-07-22T09:22:48;20.40;99.90
23289;DHT22;11813;50.834;4.280;2023-07-22T09:25:20;20.60;99.90
23289;DHT22;11813;50.834;4.280;2023-07-22T09:27:58;20.70;99.90
23289;DHT22;11813;50.834;4.280;2023-07-22T09:32:54;20.60;99.90
23289;DHT22;11813;50.834;4.280;2023-07-22T09:35:20;20.80;99.90
23289;DHT22;11813;50.834;4.280;2023-07-22T09:37:46;20.90;99.90
23289;DHT22;11813;50.834;4.280;2023-07-22T09:42:45;21.30;99.90
23289;DHT22;11813;50.834;4.280;2023-07-22T09:45:11;21.30;99.90
23289;DHT22;11813;50.834;4.280;2023-07-22T09:47:40;21.10;99.90
23289;DHT22;11813;50.834;4.280;2023-07-22T09:50:06;21.10;99.90
23289;DHT22;11813;50.834;4.280;2023-07-22T09:52:32;21.10;99.90
23289;DHT22;11813;50.834;4.280;2023-07-22T09:55:00;21.10;99.90
23289;DHT22;11813;50.834;4.280;2023-07-22T09:57:26;21.30;99.90
23289;DHT22;11813;50.834;4.280;2023-07-22T09:59:53;21.40;99.90
23289;DHT22;11813;50.834;4.280;2023-07-22T10:02:20;21.40;99.90
23289;DHT22;11813;50.834;4.280;2023-07-22T10:04:48;21.50;99.90
23289;DHT22;11813;50.834;4.280;2023-07-22T10:07:18;21.50;99.90
23289;DHT22;11813;50.834;4.280;2023-07-22T10:09:46;21.70;99.90
23289;DHT22;11813;50.834;4.280;2023-07-22T10:12:12;22.00;99.90
23289;DHT22;11813;50.834;4.280;2023-07-22T10:14:40;22.10;99.90
23289;DHT22;11813;50.834;4.280;2023-07-22T10:17:07;22.00;99.90
23289;DHT22;11813;50.834;4.280;2023-07-22T10:19:34;22.00;99.90
23289;DHT22;11813;50.834;4.280;2023-07-22T10:22:01;22.00;99.90
23289;DHT22;11813;50.834;4.280;2023-07-22T10:24:28;22.10;99.90
23289;DHT22;11813;50.834;4.280;2023-07-22T10:26:54;22.30;99.90
23289;DHT22;11813;50.834;4.280;2023-07-22T10:29:20;22.40;99.90
23289;DHT22;11813;50.834;4.280;2023-07-22T10:31:46;22.60;99.90
23289;DHT22;11813;50.834;4.280;2023-07-22T10:34:11;22.80;99.90
23289;DHT22;11813;50.834;4.280;2023-07-22T10:36:37;22.90;99.90
23289;DHT22;11813;50.834;4.280;2023-07-22T10:39:03;22.70;99.90
23289;DHT22;11813;50.834;4.280;2023-07-22T10:41:28;22.70;99.90
23289;DHT22;11813;50.834;4.280;2023-07-22T10:43:56;22.90;99.90
23289;DHT22;11813;50.834;4.280;2023-07-22T10:46:38;23.00;99.90
23289;DHT22;11813;50.834;4.280;2023-07-22T10:49:13;23.00;99.90
23289;DHT22;11813;50.834;4.280;2023-07-22T10:51:40;23.20;99.90
23289;DHT22;11813;50.834;4.280;2023-07-22T10:54:12;23.30;99.90
23289;DHT22;11813;50.834;4.280;2023-07-22T10:56:40;23.30;99.90
23289;DHT22;11813;50.834;4.280;2023-07-22T10:59:12;23.10;99.90
23289;DHT22;11813;50.834;4.280;2023-07-22T11:01:39;22.90;99.90
23289;DHT22;11813;50.834;4.280;2023-07-22T11:12:04;22.60;99.90
23289;DHT22;11813;50.834;4.280;2023-07-22T11:14:31;22.90;99.90
23289;DHT22;11813;50.834;4.280;2023-07-22T11:17:01;23.20;99.90
23289;DHT22;11813;50.834;4.280;2023-07-22T11:19:27;23.40;99.90
23289;DHT22;11813;50.834;4.280;2023-07-22T11:21:53;23.60;99.90
23289;DHT22;11813;50.834;4.280;2023-07-22T11:24:20;23.90;99.90
23289;DHT22;11813;50.834;4.280;2023-07-22T11:26:46;24.00;99.90
23289;DHT22;11813;50.834;4.280;2023-07-22T11:29:13;23.90;99.90
23289;DHT22;11813;50.834;4.280;2023-07-22T11:31:50;23.90;99.90
23289;DHT22;11813;50.834;4.280;2023-07-22T11:34:18;24.00;99.90
23289;DHT22;11813;50.834;4.280;2023-07-22T11:36:45;23.90;99.90
23289;DHT22;11813;50.834;4.280;2023-07-22T11:39:13;23.80;99.90
23289;DHT22;11813;50.834;4.280;2023-07-22T11:41:40;23.80;99.90
23289;DHT22;11813;50.834;4.280;2023-07-22T11:44:10;23.60;99.90
23289;DHT22;11813;50.834;4.280;2023-07-22T11:47:01;23.50;99.90
23289;DHT22;11813;50.834;4.280;2023-07-22T11:49:34;23.50;99.90
23289;DHT22;11813;50.834;4.280;2023-07-22T11:52:11;23.50;99.90
23289;DHT22;11813;50.834;4.280;2023-07-22T11:54:39;23.60;99.90
23289;DHT22;11813;50.834;4.280;2023-07-22T11:57:18;23.80;99.90
23289;DHT22;11813;50.834;4.280;2023-07-22T12:00:02;24.10;99.90
23289;DHT22;11813;50.834;4.280;2023-07-22T12:02:28;24.00;99.90
23289;DHT22;11813;50.834;4.280;2023-07-22T12:05:05;23.80;99.90
23289;DHT22;11813;50.834;4.280;2023-07-22T12:07:32;23.60;99.90
23289;DHT22;11813;50.834;4.280;2023-07-22T12:10:00;23.90;99.90
23289;DHT22;11813;50.834;4.280;2023-07-22T12:12:45;24.20;99.90
23289;DHT22;11813;50.834;4.280;2023-07-22T12:15:12;24.30;99.90
23289;DHT22;11813;50.834;4.280;2023-07-22T12:20:22;25.00;99.90
23289;DHT22;11813;50.834;4.280;2023-07-22T12:22:48;25.30;99.90
23289;DHT22;11813;50.834;4.280;2023-07-22T12:25:14;25.40;99.90
23289;DHT22;11813;50.834;4.280;2023-07-22T12:27:39;25.30;99.90
23289;DHT22;11813;50.834;4.280;2023-07-22T12:30:06;25.30;99.90
23289;DHT22;11813;50.834;4.280;2023-07-22T12:32:33;25.30;99.90
23289;DHT22;11813;50.834;4.280;2023-07-22T12:34:58;25.40;99.90
23289;DHT22;11813;50.834;4.280;2023-07-22T12:37:24;25.50;99.90
23289;DHT22;11813;50.834;4.280;2023-07-22T12:39:51;25.00;99.90
23289;DHT22;11813;50.834;4.280;2023-07-22T12:42:16;25.30;99.90
23289;DHT22;11813;50.834;4.280;2023-07-22T12:44:42;25.60;99.90
23289;DHT22;11813;50.834;4.280;2023-07-22T12:47:08;25.60;99.90
23289;DHT22;11813;50.834;4.280;2023-07-22T12:49:33;25.50;99.90
23289;DHT22;11813;50.834;4.280;2023-07-22T12:51:59;25.20;99.90
23289;DHT22;11813;50.834;4.280;2023-07-22T12:54:30;25.10;99.90
23289;DHT22;11813;50.834;4.280;2023-07-22T12:56:56;24.60;99.90
23289;DHT22;11813;50.834;4.280;2023-07-22T12:59:22;24.30;99.90
23289;DHT22;11813;50.834;4.280;2023-07-22T13:01:48;24.20;99.90
23289;DHT22;11813;50.834;4.280;2023-07-22T13:04:13;24.00;99.90
23289;DHT22;11813;50.834;4.280;2023-07-22T13:06:39;23.90;99.90
23289;DHT22;11813;50.834;4.280;2023-07-22T13:09:05;24.10;99.90
23289;DHT22;11813;50.834;4.280;2023-07-22T13:11:30;24.00;99.90
23289;DHT22;11813;50.834;4.280;2023-07-22T13:13:56;23.90;99.90
23289;DHT22;11813;50.834;4.280;2023-07-22T13:16:21;23.60;99.90
23289;DHT22;11813;50.834;4.280;2023-07-22T13:18:47;23.60;99.90
23289;DHT22;11813;50.834;4.280;2023-07-22T13:21:12;23.50;99.90
23289;DHT22;11813;50.834;4.280;2023-07-22T13:23:38;23.50;99.90
23289;DHT22;11813;50.834;4.280;2023-07-22T13:26:03;23.50;99.90
23289;DHT22;11813;50.834;4.280;2023-07-22T13:28:29;23.60;99.90
23289;DHT22;11813;50.834;4.280;2023-07-22T13:30:54;23.40;99.90
23289;DHT22;11813;50.834;4.280;2023-07-22T13:33:20;23.40;99.90
23289;DHT22;11813;50.834;4.280;2023-07-22T13:35:45;23.50;99.90
23289;DHT22;11813;50.834;4.280;2023-07-22T13:38:11;23.50;99.90
23289;DHT22;11813;50.834;4.280;2023-07-22T13:40:37;23.40;99.90
23289;DHT22;11813;50.834;4.280;2023-07-22T13:43:02;23.30;99.90
23289;DHT22;11813;50.834;4.280;2023-07-22T13:45:28;23.10;99.90
23289;DHT22;11813;50.834;4.280;2023-07-22T13:47:53;22.90;99.90
23289;DHT22;11813;50.834;4.280;2023-07-22T13:50:19;22.90;99.90
23289;DHT22;11813;50.834;4.280;2023-07-22T13:52:45;22.70;99.90
23289;DHT22;11813;50.834;4.280;2023-07-22T13:55:10;22.80;99.90
23289;DHT22;11813;50.834;4.280;2023-07-22T13:57:36;22.60;99.90
23289;DHT22;11813;50.834;4.280;2023-07-22T14:00:02;22.40;99.90
23289;DHT22;11813;50.834;4.280;2023-07-22T14:02:32;22.20;99.90
23289;DHT22;11813;50.834;4.280;2023-07-22T14:04:57;22.20;99.90
23289;DHT22;11813;50.834;4.280;2023-07-22T14:07:23;22.30;99.90
23289;DHT22;11813;50.834;4.280;2023-07-22T14:09:48;22.10;99.90
23289;DHT22;11813;50.834;4.280;2023-07-22T14:12:14;22.00;99.90
23289;DHT22;11813;50.834;4.280;2023-07-22T14:14:40;22.00;99.90
23289;DHT22;11813;50.834;4.280;2023-07-22T14:17:05;22.00;99.90
23289;DHT22;11813;50.834;4.280;2023-07-22T14:19:31;22.00;99.90
23289;DHT22;11813;50.834;4.280;2023-07-22T14:21:57;22.00;99.90
23289;DHT22;11813;50.834;4.280;2023-07-22T14:24:23;21.90;99.90
23289;DHT22;11813;50.834;4.280;2023-07-22T14:26:48;22.00;99.90
23289;DHT22;11813;50.834;4.280;2023-07-22T14:29:14;22.00;99.90
23289;DHT22;11813;50.834;4.280;2023-07-22T14:31:42;22.10;99.90
23289;DHT22;11813;50.834;4.280;2023-07-22T14:34:08;22.30;99.90
23289;DHT22;11813;50.834;4.280;2023-07-22T14:36:34;22.40;99.90
23289;DHT22;11813;50.834;4.280;2023-07-22T14:38:59;22.30;99.90
23289;DHT22;11813;50.834;4.280;2023-07-22T14:41:25;22.30;99.90
23289;DHT22;11813;50.834;4.280;2023-07-22T14:43:50;22.40;99.90
23289;DHT22;11813;50.834;4.280;2023-07-22T14:46:16;22.60;99.90
23289;DHT22;11813;50.834;4.280;2023-07-22T14:48:42;22.70;99.90
23289;DHT22;11813;50.834;4.280;2023-07-22T14:51:08;22.80;99.90
23289;DHT22;11813;50.834;4.280;2023-07-22T14:53:33;23.00;99.90
23289;DHT22;11813;50.834;4.280;2023-07-22T14:55:59;23.30;99.90
23289;DHT22;11813;50.834;4.280;2023-07-22T14:58:25;23.40;99.90
23289;DHT22;11813;50.834;4.280;2023-07-22T15:00:50;23.70;99.90
23289;DHT22;11813;50.834;4.280;2023-07-22T15:03:16;23.80;99.90
23289;DHT22;11813;50.834;4.280;2023-07-22T15:05:42;23.90;99.90
23289;DHT22;11813;50.834;4.280;2023-07-22T15:08:07;23.70;99.90
23289;DHT22;11813;50.834;4.280;2023-07-22T15:10:33;23.50;99.90
23289;DHT22;11813;50.834;4.280;2023-07-22T15:12:59;23.30;99.90
23289;DHT22;11813;50.834;4.280;2023-07-22T15:15:24;23.10;99.90
23289;DHT22;11813;50.834;4.280;2023-07-22T15:17:50;23.30;99.90
23289;DHT22;11813;50.834;4.280;2023-07-22T15:20:15;23.40;99.90
23289;DHT22;11813;50.834;4.280;2023-07-22T15:22:41;23.40;99.90
23289;DHT22;11813;50.834;4.280;2023-07-22T15:25:07;23.30;99.90
23289;DHT22;11813;50.834;4.280;2023-07-22T15:27:32;23.30;99.90
23289;DHT22;11813;50.834;4.280;2023-07-22T15:29:58;23.40;99.90
23289;DHT22;11813;50.834;4.280;2023-07-22T15:32:23;23.30;99.90
23289;DHT22;11813;50.834;4.280;2023-07-22T15:34:49;23.30;99.90
23289;DHT22;11813;50.834;4.280;2023-07-22T15:37:15;23.30;99.90
23289;DHT22;11813;50.834;4.280;2023-07-22T15:39:40;23.20;99.90
23289;DHT22;11813;50.834;4.280;2023-07-22T15:42:06;23.10;99.90
23289;DHT22;11813;50.834;4.280;2023-07-22T15:44:31;23.00;99.90